Terminal Aerodrome Forecast
Issued by NWS

Home | Current Version | Previous Version | Text Only | Print | Product List | Glossary On
Versions: 1 2 3 4 5 6 7 8 9 10 11 12 13 14 15 16 17 18 19 20 21 22 23 24 25
000
FTUS41 KRNK 240317 AAA
TAFBCB
TAF AMD
KBCB 240317Z 2403/2424 00000KT P6SM SKC
     FM240800 00000KT 5SM BR SCT250
      TEMPO 2409/2411 2SM BR SCT001
     FM241330 09006KT P6SM SKC=

USA.gov is the U.S. government's official web portal to all federal, state and local government web resources and services.